Flight Track Log - Related Links

Times and Time Zones

All times are in EDT time to prevent confusion due to time zone crossing. See the BJS612 flight status page for this flight to view local times or setup timezone preferences in your user account.

Time Position Orientation Groundspeed Altitude Reporting Facility
EDT Latitude Longitude Course Direction KTS MPH feet Rate Location/Type
Thu 10:59:49 AM 45.2558 -85.2786 122° Southeast 218 251 4,000  Level Minneapolis Center
Thu 11:00:52 AM 45.2264 -85.1906 115° Southeast 239 275 4,600 624 Climbing Minneapolis Center
Thu 11:01:54 AM 45.1736 -85.1272 140° Southeast 256 295 5,300 2,129 Climbing Minneapolis Center
Thu 11:02:56 AM 45.0886 -85.1058 170° South 259 298 9,000 3,387 Climbing Minneapolis Center
Thu 11:03:58 AM 45.0133 -85.0833 168° South 266 306 12,300 3,097 Climbing Minneapolis Center
Thu 11:05:00 AM 44.9508 -84.4812 122° Southeast  Level FlightAware Approximate
Thu 11:05:00 AM 44.9361 -85.0606 168° South 272 313 15,400  Level Minneapolis Center
Thu 11:06:02 AM 44.8342 -85.0361 170° South 335 386 15,800 242 Climbing Minneapolis Center
Thu 11:07:04 AM 44.7333 -85.0314 178° South 362 417 15,900 290 Climbing Minneapolis Center
Thu 11:08:06 AM 44.6350 -85.0831 201° Southwest 375 432 16,400 1,210 Climbing Minneapolis Center
Thu 11:09:08 AM 44.5311 -85.0500 167° South 411 473 18,400 1,258 Climbing Minneapolis Center
Thu 11:10:10 AM 44.4467 -84.8781 124° Southeast 443 510 19,000 242 Climbing Minneapolis Center
Thu 11:11:12 AM 44.4442 -84.7022 91° East 451 519 18,900 242 Descending Minneapolis Center
Thu 11:12:14 AM 44.4450 -84.5175 90° East 453 521 19,500 968 Climbing Minneapolis Center
Thu 11:13:16 AM 44.4467 -84.3536 89° East 434 499 20,900 2,129 Climbing Minneapolis Center
Thu 11:14:18 AM 44.4783 -84.2078 73° East 416 479 23,900 3,097 Climbing Minneapolis Center
Thu 11:15:20 AM 44.4978 -84.0439 81° East 425 489 27,300 2,855 Climbing Minneapolis Center
Thu 11:16:22 AM 44.4856 -83.8425 95° East 433 498 29,800 2,032 Climbing Minneapolis Center
Thu 11:17:24 AM 44.4689 -83.6703 98° East 441 507 31,500 1,536 Climbing Minneapolis Center
Thu 11:18:27 AM 44.4567 -83.4867 95° East 457 526 33,000 1,488 Climbing Minneapolis Center
Thu 11:19:29 AM 44.4383 -83.3014 98° East 470 541 34,600 1,403 Climbing Minneapolis Center
Thu 11:20:31 AM 44.4033 -83.1181 105° East 480 552 35,900 1,113 Climbing Minneapolis Center
Thu 11:21:33 AM 44.3597 -82.9083 106° East 476 548 36,900 677 Climbing Minneapolis Center
Thu 11:22:35 AM 44.3228 -82.7347 107° East 471 542 37,300 1,128 Climbing Minneapolis Center
Thu 11:23:30 AM 44.2833 -82.5667 108° East 470 541 39,100 1,617 Climbing Toronto Center
Thu 11:24:30 AM 44.2500 -82.4000 106° East 460 529 40,400 950 Climbing Toronto Center
Thu 11:25:30 AM 44.2000 -82.2167 111° Southeast 460 529 41,000 300 Climbing Toronto Center
Thu 11:26:30 AM 44.1667 -82.0500 106° East 470 541 41,000  Level Toronto Center
Thu 11:27:30 AM 44.1333 -81.8667 104° East 480 552 41,000  Level Toronto Center
Thu 11:28:30 AM 44.1000 -81.6833 104° East 480 552 41,000  Level Toronto Center
Thu 11:29:30 AM 44.0500 -81.4833 109° East 480 552 41,000  Level Toronto Center
Thu 11:30:30 AM 44.0167 -81.3333 107° East 480 552 41,000  Level Toronto Center
Thu 11:31:30 AM 43.9833 -81.1667 105° East 470 541 41,000  Level Toronto Center
Thu 11:32:30 AM 43.9333 -80.9833 111° Southeast 480 552 41,000  Level Toronto Center
Thu 11:33:30 AM 43.9167 -80.7833 97° East 480 552 41,000  Level Toronto Center
Thu 11:34:30 AM 43.8833 -80.6333 107° East 480 552 41,000  Level Toronto Center
Thu 11:35:30 AM 43.8333 -80.4500 111° Southeast 480 552 41,000  Level Toronto Center
Thu 11:36:30 AM 43.8000 -80.2833 105° East 480 552 41,000  Level Toronto Center
Thu 11:37:30 AM 43.7667 -80.1000 104° East 470 541 41,000  Level Toronto Center
Thu 11:38:30 AM 43.7167 -79.9333 112° Southeast 470 541 41,000  Level Toronto Center
Thu 11:40:30 AM 43.6500 -79.5667 104° East 480 552 41,000  Level Toronto Center
Thu 11:41:30 AM 43.6333 -79.3833 97° East 480 552 41,000  Level Toronto Center
Thu 11:42:30 AM 43.6167 -79.2167 98° East 470 541 41,000  Level Toronto Center
Thu 11:43:30 AM 43.6000 -79.0333 97° East 470 541 41,000 -500 Level Toronto Center
Thu 11:44:30 AM 43.6000 -78.8500 90° East 480 552 40,000 -1,250 Descending Toronto Center
Thu 11:45:30 AM 43.5500 -78.6833 112° Southeast 470 541 38,500 -1,550 Descending Toronto Center
Thu 11:46:30 AM 43.4833 -78.5333 121° Southeast 450 518 36,900 -1,550 Descending Toronto Center
Thu 11:47:30 AM 43.4167 -78.4000 125° Southeast 450 518 35,400 -1,514 Descending Toronto Center
Thu 11:48:21 AM 43.3936 -78.2692 104° East 447 514 34,100 -1,243 Descending Cleveland Center
Thu 11:49:21 AM 43.3361 -78.1028 115° Southeast 453 521 33,100 -550 Descending Cleveland Center
Thu 11:50:21 AM 43.2783 -77.9428 116° Southeast 463 533 33,000 -550 Descending Cleveland Center
Thu 11:51:21 AM 43.2244 -77.7769 114° Southeast 468 539 32,000 -1,050 Descending Cleveland Center
Thu 11:52:21 AM 43.1642 -77.6117 117° Southeast 474 545 30,900 -1,048 Descending Cleveland Center
Thu 11:54:30 AM 43.0167 -77.2167 117° Southeast 490 564 28,700 -1,016 Descending Toronto Center
Thu 11:55:30 AM 42.9667 -77.0667 114° Southeast 490 564 27,700 -850 Descending Toronto Center
Thu 11:56:30 AM 42.9000 -76.9000 119° Southeast 480 552 27,000 -350 Descending Toronto Center
Thu 11:57:30 AM 42.8500 -76.7500 114° Southeast 480 552 27,000  Level Toronto Center
Thu 11:58:30 AM 42.7833 -76.5833 119° Southeast 470 541 27,000  Level Toronto Center
Thu 11:59:30 AM 42.7333 -76.4333 114° Southeast 470 541 27,000  Level Toronto Center
Thu 12:00:30 PM 42.6667 -76.2500 116° Southeast 470 541 27,000 -250 Level Toronto Center
Thu 12:01:30 PM 42.6000 -76.1000 121° Southeast 480 552 26,500 -1,550 Descending Toronto Center
Thu 12:02:30 PM 42.5500 -75.9500 114° Southeast 460 529 23,900 -2,524 Descending Toronto Center
Thu 12:03:36 PM 42.5125 -75.8289 113° Southeast 452 520 21,200 -2,429 Descending Boston Center
Thu 12:04:36 PM 42.4600 -75.6936 118° Southeast 426 490 18,800 -2,250 Descending Boston Center
Thu 12:05:36 PM 42.4078 -75.5558 117° Southeast 408 470 16,700 -2,000 Descending Boston Center
Thu 12:06:36 PM 42.3592 -75.4242 117° Southeast 402 463 14,800 -1,900 Descending Boston Center
Thu 12:07:36 PM 42.3081 -75.3011 119° Southeast 396 456 12,900 -1,750 Descending Boston Center
Thu 12:08:36 PM 42.2572 -75.1611 116° Southeast 384 442 11,300 -950 Descending Boston Center
Thu 12:09:36 PM 42.2097 -75.0583 122° Southeast 377 434 11,000 -136 Descending Boston Center
Thu 12:10:48 PM 42.1497 -74.9464 126° Southeast 370 426 11,000  Level Boston Center
Thu 12:11:48 PM 42.0753 -74.8233 129° Southeast 360 414 11,000 -413 Level Boston Center
Thu 12:13:28 PM 41.9833 -74.6500 125° Southeast 352 405 9,900 -976 Descending New York TRACON
Thu 12:14:34 PM 41.9333 -74.5500 124° Southeast 289 333 8,300 -1,238 Descending New York TRACON
Thu 12:15:34 PM 41.8667 -74.4833 143° Southeast 274 315 7,300 -1,050 Descending New York TRACON
Thu 12:16:34 PM 41.8167 -74.4167 135° Southeast 277 319 6,200 -1,000 Descending New York TRACON
Thu 12:17:34 PM 41.7500 -74.3667 151° Southeast 266 306 5,300 -1,050 Descending New York TRACON
Thu 12:18:34 PM 41.7000 -74.3000 135° Southeast 258 297 4,100 -619 Descending New York TRACON
Thu 12:19:40 PM 41.6333 -74.2333 143° Southeast 242 278 4,000 -50 Descending New York TRACON
Thu 12:20:34 PM 41.5833 -74.2000 153° Southeast 235 270 4,000 -526 Level New York TRACON
Thu 12:21:34 PM 41.5500 -74.1500 132° Southeast 212 244 3,000 -1,050 Descending New York TRACON
Thu 12:22:34 PM 41.5000 -74.1667 194° South 187 215 1,900 -800 Descending New York TRACON
Thu 12:23:34 PM 41.4833 -74.1667 180° South 182 209 1,400 -500 Descending New York TRACON
Thu 12:25:00 PM 41.5000 -74.1000 153° Southeast  Level FlightAware Approximate

Login

Don't have an account? Register now (free) for customized features, flight alerts, and more!